Hauptseite
METAR-TAF:

METAR-TAF

Flughäfen :

Schaffen

Diest, Belgien

Breite: 51-00N, Länge: 005-04E, Höhe: 30 m

Beobachtung

Neuester Wetterbericht von vor 10 Minuten, um 06:55 UTC
Wind 2 kt aus unterschiedlichen Richtungen
Temperatur 19°C
Luftfeuchtigkeit 60%
Luftdruck 1019 hPa
Sichtweite 10 km oder mehr

METAR: EBDT 180655Z AUTO VRB02KT 9999 NCD 19/11 Q1019 BLU

Zeit: 09:05 (07:05 UTC)


TAF: fehlend

Wetterbeobachtungen und Prognosen von mehr als 4000 Flughäfen (METAR und TAF Bericht).

Die verfügbaren Stationen werden durch gelbe und rote Markierungen auf der Karte dargestellt.

Führen Sie die Maus auf sie, um den Namen der Station zu sehen.

Darauf klicken, um die Beobachtung von Wetterbeobachtungen und Prognosen zu sehen.

Um die Karte zu ändern : klicken Sie auf den grünen Tasten mit einem schwarzen Kreuz Zum Vergrößern, auf den grünen Button mit einem Gedankenstrich zu verkleinern, oder auf die grünen Pfeile für benachbarte Karten.


METAR-TAF: